createdAt,value
2023-01-25T00:01:54.410Z,19.23
2023-01-25T00:04:24.094Z,19.60
2023-01-25T00:06:52.861Z,21.33
2023-01-25T00:09:30.107Z,19.43
2023-01-25T00:11:58.732Z,19.50
2023-01-25T00:14:28.513Z,20.47
2023-01-25T00:16:56.944Z,21.50
2023-01-25T00:19:25.268Z,22.13
2023-01-25T00:21:53.592Z,20.93
2023-01-25T00:24:22.987Z,22.33
2023-01-25T00:26:51.403Z,21.53
2023-01-25T00:29:19.883Z,20.73
2023-01-25T00:32:08.385Z,23.03
2023-01-25T00:34:48.508Z,20.83
2023-01-25T00:37:26.007Z,22.60
2023-01-25T00:39:54.241Z,22.60
2023-01-25T00:42:22.874Z,21.73
2023-01-25T00:44:51.210Z,20.60
2023-01-25T00:47:22.829Z,21.80
2023-01-25T00:49:51.225Z,22.50
2023-01-25T00:52:20.703Z,21.93
2023-01-25T00:54:49.046Z,22.00
2023-01-25T00:57:17.493Z,22.50
2023-01-25T00:59:47.413Z,22.07
2023-01-25T01:02:16.315Z,21.53
2023-01-25T01:04:46.203Z,21.17
2023-01-25T01:07:16.298Z,21.07
2023-01-25T01:09:44.630Z,21.00
2023-01-25T01:12:12.828Z,21.40
2023-01-25T01:14:41.089Z,20.53
2023-01-25T01:17:09.358Z,22.30
2023-01-25T01:19:37.658Z,22.87
2023-01-25T01:22:07.251Z,22.20
2023-01-25T01:24:35.484Z,23.40
2023-01-25T01:27:04.584Z,23.07
2023-01-25T01:29:33.060Z,23.63
2023-01-25T01:32:01.415Z,22.63
2023-01-25T01:34:29.765Z,22.93
2023-01-25T01:36:58.011Z,24.10
2023-01-25T01:39:27.675Z,22.27
2023-01-25T01:41:56.169Z,21.27
2023-01-25T01:44:47.826Z,21.93
2023-01-25T01:47:23.526Z,19.73
2023-01-25T01:50:02.502Z,18.63
2023-01-25T01:52:38.377Z,18.60
2023-01-25T01:55:15.493Z,19.17
2023-01-25T01:57:50.827Z,19.30
2023-01-25T02:00:23.960Z,18.17
2023-01-25T02:02:53.623Z,18.57
2023-01-25T02:05:29.463Z,18.03
2023-01-25T02:07:59.762Z,17.23
2023-01-25T02:10:31.795Z,18.53
2023-01-25T02:13:00.915Z,16.63
2023-01-25T02:15:37.590Z,17.30
2023-01-25T02:18:06.231Z,17.13
2023-01-25T02:20:39.514Z,18.13
2023-01-25T02:23:19.991Z,17.73
2023-01-25T02:25:50.339Z,17.13
2023-01-25T02:28:25.924Z,17.43
2023-01-25T02:30:54.377Z,18.90
2023-01-25T02:33:26.170Z,17.50
2023-01-25T02:36:01.422Z,16.87
2023-01-25T02:38:35.169Z,18.43
2023-01-25T02:41:11.662Z,17.83
2023-01-25T02:43:41.463Z,18.53
2023-01-25T02:46:18.975Z,18.30
2023-01-25T02:48:47.328Z,18.90
2023-01-25T02:51:15.937Z,17.23
2023-01-25T02:53:44.180Z,18.47
2023-01-25T02:56:13.834Z,17.50
2023-01-25T02:58:42.812Z,17.43
2023-01-25T03:01:11.540Z,17.63
2023-01-25T03:03:42.606Z,17.77
2023-01-25T03:06:11.603Z,16.73
2023-01-25T03:08:40.637Z,17.33
2023-01-25T03:11:10.142Z,18.40
2023-01-25T03:13:40.076Z,17.87
2023-01-25T03:16:11.125Z,17.80
2023-01-25T03:18:42.769Z,17.27
2023-01-25T03:21:14.727Z,17.10
2023-01-25T03:23:44.347Z,17.57
2023-01-25T03:26:17.835Z,17.63
2023-01-25T03:29:03.784Z,17.53
2023-01-25T03:31:32.193Z,17.57
2023-01-25T03:34:00.666Z,18.73
2023-01-25T03:36:34.107Z,18.77
2023-01-25T03:39:02.407Z,19.40
2023-01-25T03:41:30.894Z,18.73
2023-01-25T03:44:01.183Z,19.67
2023-01-25T03:46:31.188Z,18.73
2023-01-25T03:48:59.509Z,18.47
2023-01-25T03:51:27.989Z,18.60
2023-01-25T03:53:56.204Z,19.93
2023-01-25T03:56:24.481Z,19.30
2023-01-25T03:59:00.011Z,19.27
2023-01-25T04:01:30.184Z,20.00
2023-01-25T04:03:58.541Z,19.33
2023-01-25T04:06:26.890Z,19.00
2023-01-25T04:08:55.307Z,19.23
2023-01-25T04:11:26.186Z,18.70
2023-01-25T04:13:56.036Z,20.67
2023-01-25T04:16:27.188Z,20.13
2023-01-25T04:19:15.338Z,20.73
2023-01-25T04:21:44.021Z,19.90
2023-01-25T04:24:13.121Z,20.43
2023-01-25T04:26:43.424Z,19.23
2023-01-25T04:29:12.927Z,18.90
2023-01-25T04:31:41.272Z,19.40
2023-01-25T04:34:09.594Z,19.47
2023-01-25T04:36:39.255Z,19.10
2023-01-25T04:39:08.479Z,19.33
2023-01-25T04:41:38.165Z,18.63
2023-01-25T04:44:07.067Z,18.80
2023-01-25T04:46:36.608Z,19.03
2023-01-25T04:49:05.673Z,19.30
2023-01-25T04:51:34.726Z,19.47
2023-01-25T04:54:04.986Z,20.20
2023-01-25T04:56:35.453Z,18.93
2023-01-25T04:59:03.867Z,18.57
2023-01-25T05:01:34.286Z,19.43
2023-01-25T05:04:06.309Z,17.30
2023-01-25T05:06:39.716Z,18.57
2023-01-25T05:09:10.604Z,17.83
2023-01-25T05:11:39.281Z,19.80
2023-01-25T05:14:27.862Z,18.50
2023-01-25T05:16:56.489Z,19.13
2023-01-25T05:19:24.883Z,19.57
2023-01-25T05:22:01.666Z,19.33
2023-01-25T05:24:41.572Z,20.73
2023-01-25T05:27:12.302Z,20.47
2023-01-25T05:30:00.951Z,18.83
2023-01-25T05:32:50.713Z,20.47
2023-01-25T05:35:19.517Z,20.77
2023-01-25T05:37:49.582Z,19.87
2023-01-25T05:40:24.582Z,20.97
2023-01-25T05:42:56.974Z,19.83
2023-01-25T05:45:27.243Z,19.00
2023-01-25T05:47:58.569Z,19.67
2023-01-25T05:50:28.412Z,18.43
2023-01-25T05:53:02.975Z,19.60
2023-01-25T05:55:33.155Z,19.13
2023-01-25T05:58:05.752Z,19.07
2023-01-25T06:00:34.183Z,20.07
2023-01-25T06:03:03.641Z,18.43
2023-01-25T06:05:34.446Z,19.90
2023-01-25T06:08:02.810Z,19.67
2023-01-25T06:10:41.023Z,18.53
2023-01-25T06:13:09.226Z,19.77
2023-01-25T06:15:37.411Z,19.73
2023-01-25T06:18:26.020Z,18.10
2023-01-25T06:21:09.283Z,18.10
2023-01-25T06:23:38.171Z,18.20
2023-01-25T06:26:11.748Z,17.93
2023-01-25T06:28:40.894Z,18.53
2023-01-25T06:31:12.536Z,17.17
2023-01-25T06:33:42.368Z,18.20
2023-01-25T06:36:14.390Z,17.53
2023-01-25T06:38:43.370Z,18.57
2023-01-25T06:41:13.423Z,18.77
2023-01-25T06:43:41.619Z,18.20
2023-01-25T06:46:12.921Z,17.30
2023-01-25T06:48:42.855Z,18.20
2023-01-25T06:51:13.681Z,18.00
2023-01-25T06:53:44.924Z,18.57
2023-01-25T06:56:17.692Z,18.57
2023-01-25T06:58:47.136Z,17.40
2023-01-25T07:01:19.788Z,18.53
2023-01-25T07:03:50.749Z,18.20
2023-01-25T07:06:20.014Z,18.07
2023-01-25T07:08:49.122Z,18.20
2023-01-25T07:11:19.412Z,18.73
2023-01-25T07:13:48.985Z,18.53
2023-01-25T07:16:20.345Z,19.40
2023-01-25T07:18:49.055Z,19.53
2023-01-25T07:21:21.263Z,18.67
2023-01-25T07:23:50.308Z,18.40
2023-01-25T07:26:24.543Z,18.47
2023-01-25T07:28:54.050Z,19.57
2023-01-25T07:31:24.624Z,19.80
2023-01-25T07:33:54.489Z,18.53
2023-01-25T07:36:23.745Z,19.30
2023-01-25T07:38:55.169Z,20.57
2023-01-25T07:41:26.474Z,20.13
2023-01-25T07:43:55.369Z,20.77
2023-01-25T07:46:43.880Z,19.87
2023-01-25T07:49:12.099Z,20.63
2023-01-25T07:51:40.437Z,19.97
2023-01-25T07:54:11.165Z,20.43
2023-01-25T07:56:40.982Z,21.20
2023-01-25T07:59:10.887Z,20.53
2023-01-25T08:01:41.088Z,20.33
2023-01-25T08:04:10.426Z,20.80
2023-01-25T08:06:39.823Z,22.10
2023-01-25T08:09:12.987Z,21.33
2023-01-25T08:11:43.925Z,21.40
2023-01-25T08:14:12.386Z,21.60
2023-01-25T08:16:40.997Z,20.67
2023-01-25T08:19:11.911Z,21.30
2023-01-25T08:21:40.224Z,20.60
2023-01-25T08:24:09.928Z,22.07
2023-01-25T08:26:39.094Z,21.30
2023-01-25T08:29:08.698Z,20.83
2023-01-25T08:31:37.690Z,21.27
2023-01-25T08:34:07.041Z,20.60
2023-01-25T08:36:35.430Z,19.77
2023-01-25T08:39:08.136Z,20.40
2023-01-25T08:41:37.391Z,21.37
2023-01-25T08:44:06.648Z,21.47
2023-01-25T08:46:36.432Z,22.37
2023-01-25T08:49:05.505Z,21.00
2023-01-25T08:51:34.820Z,21.87
2023-01-25T08:54:05.148Z,23.40
2023-01-25T08:56:33.533Z,22.40
2023-01-25T08:59:01.790Z,21.67
2023-01-25T09:01:30.070Z,22.47
2023-01-25T09:04:00.009Z,22.17
2023-01-25T09:06:28.893Z,21.80
2023-01-25T09:08:57.130Z,21.60
2023-01-25T09:11:25.374Z,22.63
2023-01-25T09:13:53.931Z,21.20
2023-01-25T09:16:29.467Z,21.47
2023-01-25T09:19:02.277Z,22.20
2023-01-25T09:21:31.091Z,21.97
2023-01-25T09:24:08.082Z,22.17
2023-01-25T09:26:39.337Z,22.93
2023-01-25T09:29:08.628Z,23.10
2023-01-25T09:31:40.282Z,22.90
2023-01-25T09:34:20.608Z,22.83
2023-01-25T09:36:48.873Z,24.00
2023-01-25T09:39:17.158Z,24.00
2023-01-25T09:42:25.757Z,24.80
2023-01-25T09:45:28.258Z,23.77
2023-01-25T09:48:10.365Z,24.87
2023-01-25T09:50:58.169Z,25.77
2023-01-25T09:53:36.250Z,24.47
2023-01-25T09:56:13.644Z,25.93
2023-01-25T09:58:46.927Z,26.57
2023-01-25T10:01:39.048Z,28.80
2023-01-25T10:04:17.811Z,28.77
2023-01-25T10:07:00.175Z,28.70
2023-01-25T10:09:46.041Z,30.20
2023-01-25T10:12:21.417Z,30.40
2023-01-25T10:14:51.276Z,30.97
2023-01-25T10:17:31.436Z,32.10
2023-01-25T10:20:16.454Z,30.13
2023-01-25T10:22:52.141Z,31.30
2023-01-25T10:25:30.307Z,32.17
2023-01-25T10:28:25.555Z,31.53
2023-01-25T10:31:00.712Z,33.13
2023-01-25T10:33:33.758Z,33.13
2023-01-25T10:36:06.276Z,32.13
2023-01-25T10:38:42.192Z,33.43
2023-01-25T10:41:18.996Z,32.90
2023-01-25T10:43:47.280Z,34.23
2023-01-25T10:46:23.510Z,36.30
2023-01-25T10:48:52.110Z,35.10
2023-01-25T10:51:32.518Z,36.20
2023-01-25T10:54:04.781Z,36.33
2023-01-25T10:56:36.609Z,35.03
2023-01-25T10:59:18.485Z,35.37
2023-01-25T11:01:47.247Z,35.63
2023-01-25T11:04:32.797Z,34.57
2023-01-25T11:07:02.842Z,34.40
2023-01-25T11:09:36.746Z,32.87
2023-01-25T11:12:16.563Z,32.83
2023-01-25T11:14:45.556Z,32.53
2023-01-25T11:17:27.838Z,31.90
2023-01-25T11:20:20.698Z,31.33
2023-01-25T11:22:55.174Z,30.90
2023-01-25T11:25:32.612Z,29.87
2023-01-25T11:28:20.129Z,30.90
2023-01-25T11:30:50.021Z,32.63
2023-01-25T11:33:21.967Z,30.27
2023-01-25T11:36:29.265Z,31.90
2023-01-25T11:39:17.627Z,31.47
2023-01-25T11:42:07.843Z,30.73
2023-01-25T11:45:11.176Z,30.10
2023-01-25T11:48:01.134Z,30.93
2023-01-25T11:50:37.469Z,32.63
2023-01-25T11:53:43.751Z,33.63
2023-01-25T11:56:24.262Z,31.50
2023-01-25T11:59:19.059Z,32.73
2023-01-25T12:02:25.879Z,32.53
2023-01-25T12:05:21.655Z,30.70
2023-01-25T12:08:03.297Z,31.37
2023-01-25T12:10:48.290Z,29.43
2023-01-25T12:13:31.191Z,29.37
2023-01-25T12:16:28.956Z,30.67
2023-01-25T12:19:27.612Z,28.00
2023-01-25T12:22:30.289Z,30.00
2023-01-25T12:25:09.024Z,26.67
2023-01-25T12:27:59.177Z,28.37
2023-01-25T12:30:41.800Z,25.67
2023-01-25T12:33:18.464Z,27.30
2023-01-25T12:35:57.584Z,26.67
2023-01-25T12:38:36.184Z,26.63
2023-01-25T12:41:21.245Z,26.33
2023-01-25T12:43:59.042Z,26.77
2023-01-25T12:46:35.596Z,25.97
2023-01-25T12:49:18.923Z,25.63
2023-01-25T12:51:49.490Z,27.17
2023-01-25T12:54:26.333Z,28.13
2023-01-25T12:57:12.530Z,27.60
2023-01-25T12:59:55.250Z,27.77
2023-01-25T13:03:22.530Z,28.80
2023-01-25T13:06:02.046Z,27.90
2023-01-25T13:08:48.164Z,28.30
2023-01-25T13:11:23.904Z,28.13
2023-01-25T13:13:52.538Z,26.67
2023-01-25T13:16:44.811Z,27.97
2023-01-25T13:19:41.798Z,30.50
2023-01-25T13:22:13.838Z,26.87
2023-01-25T13:25:21.309Z,27.80
2023-01-25T13:27:49.587Z,27.47
2023-01-25T13:30:34.629Z,26.83
2023-01-25T13:33:06.977Z,28.70
2023-01-25T13:35:42.341Z,26.87
2023-01-25T13:38:32.181Z,27.13
2023-01-25T13:41:12.563Z,26.73
2023-01-25T13:43:51.420Z,28.23
2023-01-25T13:46:25.101Z,26.30
2023-01-25T13:49:08.109Z,27.50
2023-01-25T13:51:41.759Z,29.27
2023-01-25T13:54:18.241Z,28.67
2023-01-25T13:56:46.756Z,28.60
2023-01-25T13:59:29.244Z,30.30
2023-01-25T14:02:00.213Z,29.37
2023-01-25T14:04:30.392Z,30.07
2023-01-25T14:07:02.805Z,29.60
2023-01-25T14:09:32.379Z,31.07
2023-01-25T14:12:06.815Z,30.80
2023-01-25T14:14:36.664Z,30.90
2023-01-25T14:17:18.159Z,31.10
2023-01-25T14:19:50.172Z,30.40
2023-01-25T14:22:26.240Z,30.00
2023-01-25T14:25:14.378Z,30.37
2023-01-25T14:27:46.995Z,29.83
2023-01-25T14:30:25.107Z,29.87
2023-01-25T14:32:56.599Z,29.47
2023-01-25T14:35:49.264Z,30.73
2023-01-25T14:38:37.302Z,30.47
2023-01-25T14:41:14.952Z,32.43
2023-01-25T14:43:46.890Z,31.60
2023-01-25T14:46:28.800Z,31.93
2023-01-25T14:49:28.701Z,32.47
2023-01-25T14:52:06.063Z,32.03
2023-01-25T14:54:38.944Z,34.90
2023-01-25T14:57:33.190Z,34.47
2023-01-25T15:00:04.194Z,34.90
2023-01-25T15:02:41.136Z,33.30
2023-01-25T15:05:23.408Z,34.43
2023-01-25T15:07:54.677Z,34.43
2023-01-25T15:10:26.997Z,32.43
2023-01-25T15:13:13.577Z,34.63
2023-01-25T15:15:55.125Z,35.00
2023-01-25T15:18:47.807Z,35.80
2023-01-25T15:21:18.255Z,33.10
2023-01-25T15:23:49.014Z,34.27
2023-01-25T15:26:22.551Z,35.60
2023-01-25T15:28:56.000Z,34.50
2023-01-25T15:31:30.408Z,34.53
2023-01-25T15:34:01.338Z,33.73
2023-01-25T15:36:30.527Z,33.40
2023-01-25T15:38:58.829Z,33.03
2023-01-25T15:41:27.071Z,33.43
2023-01-25T15:43:56.639Z,33.77
2023-01-25T15:46:29.799Z,32.50
2023-01-25T15:48:58.389Z,31.30
2023-01-25T15:51:27.023Z,31.03
2023-01-25T15:53:55.274Z,28.90
2023-01-25T15:56:30.077Z,27.33
2023-01-25T15:59:01.769Z,26.90
2023-01-25T16:01:31.701Z,28.10
2023-01-25T16:04:01.700Z,29.00
2023-01-25T16:06:38.333Z,27.67
2023-01-25T16:09:19.703Z,27.13
2023-01-25T16:11:51.725Z,27.97
2023-01-25T16:14:23.588Z,28.67
2023-01-25T16:16:54.141Z,28.73
2023-01-25T16:19:25.354Z,31.37
2023-01-25T16:21:53.818Z,30.20
2023-01-25T16:24:22.309Z,30.90
2023-01-25T16:26:54.899Z,31.27
2023-01-25T16:29:25.381Z,31.07
2023-01-25T16:31:55.182Z,30.67
2023-01-25T16:34:24.110Z,29.60
2023-01-25T16:36:53.061Z,28.57
2023-01-25T16:39:23.702Z,29.73
2023-01-25T16:41:52.346Z,26.70
2023-01-25T16:44:21.201Z,26.57
2023-01-25T16:46:51.109Z,25.70
2023-01-25T16:49:24.362Z,27.23
2023-01-25T16:51:52.919Z,26.13
2023-01-25T16:54:22.066Z,27.13
2023-01-25T16:56:51.620Z,27.63
2023-01-25T16:59:23.780Z,28.43
2023-01-25T17:01:53.706Z,29.30
2023-01-25T17:04:22.026Z,30.10
2023-01-25T17:06:52.961Z,27.80
2023-01-25T17:09:24.575Z,27.33
2023-01-25T17:11:53.877Z,27.90
2023-01-25T17:14:23.680Z,27.53
2023-01-25T17:16:53.748Z,27.27
2023-01-25T17:19:22.481Z,29.40
2023-01-25T17:21:50.765Z,29.13
2023-01-25T17:24:22.248Z,28.43
2023-01-25T17:26:51.173Z,28.97
2023-01-25T17:29:19.506Z,30.60
2023-01-25T17:31:48.069Z,30.03
2023-01-25T17:34:21.746Z,34.10
2023-01-25T17:36:52.536Z,31.03
2023-01-25T17:39:22.561Z,28.57
2023-01-25T17:41:52.695Z,24.40
2023-01-25T17:44:24.447Z,30.13
2023-01-25T17:46:53.170Z,32.03
2023-01-25T17:49:23.350Z,36.20
2023-01-25T17:51:51.688Z,35.10
2023-01-25T17:54:19.977Z,37.67
2023-01-25T17:56:48.190Z,37.13
2023-01-25T17:59:16.441Z,37.33
2023-01-25T18:01:44.764Z,35.73
2023-01-25T18:04:17.415Z,36.77
2023-01-25T18:06:47.240Z,38.10
2023-01-25T18:09:15.614Z,37.97
2023-01-25T18:11:43.875Z,38.37
2023-01-25T18:14:16.803Z,38.83
2023-01-25T18:16:45.674Z,38.93
2023-01-25T18:19:14.307Z,40.50
2023-01-25T18:21:43.294Z,38.73
2023-01-25T18:24:28.432Z,37.70
2023-01-25T18:27:04.681Z,39.17
2023-01-25T18:29:46.174Z,41.30
2023-01-25T18:32:15.319Z,37.93
2023-01-25T18:34:43.618Z,46.17
2023-01-25T18:37:21.715Z,42.13
2023-01-25T18:39:53.904Z,41.90
2023-01-25T18:42:24.607Z,41.33
2023-01-25T18:44:53.153Z,39.67
2023-01-25T18:47:23.720Z,39.47
2023-01-25T18:49:54.315Z,38.43
2023-01-25T18:52:24.432Z,35.67
2023-01-25T18:54:54.741Z,37.03
2023-01-25T18:57:23.097Z,33.60
2023-01-25T18:59:51.407Z,35.10
2023-01-25T19:02:20.359Z,34.23
2023-01-25T19:04:48.531Z,35.80
2023-01-25T19:07:17.188Z,37.27
2023-01-25T19:09:47.739Z,35.63
2023-01-25T19:12:17.350Z,37.03
2023-01-25T19:14:45.527Z,37.57
2023-01-25T19:17:13.738Z,35.97
2023-01-25T19:19:44.054Z,34.93
2023-01-25T19:22:12.698Z,37.13
2023-01-25T19:24:40.903Z,36.10
2023-01-25T19:27:09.104Z,36.40
2023-01-25T19:29:38.701Z,34.33
2023-01-25T19:32:07.373Z,35.03
2023-01-25T19:34:35.621Z,36.07
2023-01-25T19:37:03.944Z,37.30
2023-01-25T19:39:32.183Z,35.13
2023-01-25T19:42:00.470Z,36.00
2023-01-25T19:44:28.757Z,35.73
2023-01-25T19:46:58.290Z,36.27
2023-01-25T19:49:26.553Z,36.93
2023-01-25T19:51:54.762Z,37.10
2023-01-25T19:54:24.110Z,36.00
2023-01-25T19:56:52.561Z,37.30
2023-01-25T19:59:24.801Z,38.33
2023-01-25T20:01:53.509Z,37.37
2023-01-25T20:04:24.993Z,37.60
2023-01-25T20:06:53.459Z,37.80
2023-01-25T20:09:24.829Z,36.80
2023-01-25T20:11:56.199Z,38.80
2023-01-25T20:14:24.810Z,38.90
2023-01-25T20:16:53.490Z,39.13
2023-01-25T20:19:23.561Z,38.03
2023-01-25T20:21:51.883Z,36.23
2023-01-25T20:24:20.217Z,37.87
2023-01-25T20:26:49.090Z,37.73
2023-01-25T20:29:17.390Z,37.07
2023-01-25T20:31:47.151Z,37.50
2023-01-25T20:34:17.728Z,38.53
2023-01-25T20:36:49.184Z,38.80
2023-01-25T20:39:19.670Z,36.10
2023-01-25T20:41:48.340Z,37.20
2023-01-25T20:44:18.598Z,36.23
2023-01-25T20:46:47.183Z,33.17
2023-01-25T20:49:18.577Z,35.43
2023-01-25T20:51:48.901Z,35.93
2023-01-25T20:54:18.109Z,34.33
2023-01-25T20:56:47.891Z,34.97
2023-01-25T20:59:17.705Z,34.83
2023-01-25T21:01:46.733Z,34.50
2023-01-25T21:04:15.260Z,34.43
2023-01-25T21:06:43.684Z,37.90
2023-01-25T21:09:13.985Z,34.67
2023-01-25T21:11:42.951Z,35.73
2023-01-25T21:14:11.196Z,36.77
2023-01-25T21:16:39.444Z,36.83
2023-01-25T21:19:08.581Z,36.17
2023-01-25T21:21:38.337Z,36.23
2023-01-25T21:24:07.862Z,38.43
2023-01-25T21:26:38.550Z,35.53
2023-01-25T21:29:08.069Z,37.77
2023-01-25T21:31:42.296Z,38.37
2023-01-25T21:34:11.597Z,36.73
2023-01-25T21:36:39.917Z,38.97
2023-01-25T21:39:08.451Z,40.73
2023-01-25T21:41:37.981Z,38.03
2023-01-25T21:44:24.197Z,39.77
2023-01-25T21:47:19.700Z,39.80
2023-01-25T21:49:58.319Z,39.40
2023-01-25T21:52:26.606Z,39.07
2023-01-25T21:54:54.784Z,41.27
2023-01-25T21:57:24.351Z,39.37
2023-01-25T21:59:54.243Z,40.10
2023-01-25T22:02:22.968Z,40.57
2023-01-25T22:04:51.291Z,40.63
2023-01-25T22:07:19.597Z,41.57
2023-01-25T22:09:49.341Z,40.83
2023-01-25T22:12:17.588Z,41.93
2023-01-25T22:14:47.147Z,42.63
2023-01-25T22:17:15.426Z,42.30
2023-01-25T22:19:43.703Z,42.40
2023-01-25T22:22:11.901Z,41.23
2023-01-25T22:24:40.108Z,39.80
2023-01-25T22:27:33.365Z,42.37
2023-01-25T22:30:05.065Z,41.07
2023-01-25T22:32:33.287Z,41.33
2023-01-25T22:35:01.562Z,39.50
2023-01-25T22:37:29.835Z,40.60
2023-01-25T22:39:58.801Z,39.03
2023-01-25T22:42:27.049Z,42.47
2023-01-25T22:44:55.265Z,40.17
2023-01-25T22:47:25.031Z,40.63
2023-01-25T22:49:53.500Z,41.80
2023-01-25T22:52:22.119Z,42.13
2023-01-25T22:54:50.852Z,41.77
2023-01-25T22:57:19.376Z,40.50
2023-01-25T22:59:47.585Z,42.43
2023-01-25T23:02:15.923Z,40.33
2023-01-25T23:04:45.863Z,41.03
2023-01-25T23:07:18.730Z,43.13
2023-01-25T23:09:51.247Z,41.70
2023-01-25T23:12:20.478Z,41.97
2023-01-25T23:14:51.209Z,41.77
2023-01-25T23:17:38.287Z,41.53
2023-01-25T23:20:12.068Z,41.30
2023-01-25T23:22:40.589Z,43.17
2023-01-25T23:25:10.712Z,40.13
2023-01-25T23:27:39.135Z,42.47
2023-01-25T23:30:09.843Z,40.67
2023-01-25T23:32:38.622Z,41.00
2023-01-25T23:35:09.142Z,41.37
2023-01-25T23:37:37.418Z,44.00
2023-01-25T23:40:08.936Z,39.90
2023-01-25T23:42:37.643Z,41.43
2023-01-25T23:45:07.296Z,38.70
2023-01-25T23:47:36.184Z,40.00
2023-01-25T23:50:05.175Z,38.27
2023-01-25T23:52:35.969Z,35.73
2023-01-25T23:55:05.039Z,37.80
2023-01-25T23:57:33.239Z,38.60
